Chambord, Canada
Current Conditions -  °F | °C
As of 12:00 AM on Monday 20 Oct 2014 (Local Time) from CYRJ Reporting Station
Broken Clouds Broken Clouds  
Wind Chill: 26°   Ceiling: 3500
Heat Index: 34°   Visibility: 25mi
Dew Point: 25°   Wind: 9mph
Humidity: 70%   Direction: 310°NW
Pressure: 29.85"   Gusts: 25mph
Location:  48.43°N, 72.08°W
Report Text: CYRJ 200400Z 31008G22KT 25SM BKN035 01/M04 A2985 RMK SC7 SLP116
Loading
Personal Weather Stations






























Interactive Weather Map
Tropical Storm Tracking
New forecast layout! Learn more

10-Day Weather Forecast

Advertisements
Track Severe Weather on mobile